sensor_id;sensor_type;location;lat;lon;timestamp;temperature;humidity
15364;DHT22;7781;49.690;6.472;2023-09-19T00:01:48;16.40;99.90
15364;DHT22;7781;49.690;6.472;2023-09-19T00:04:17;16.30;99.90
15364;DHT22;7781;49.690;6.472;2023-09-19T00:06:50;16.30;99.90
15364;DHT22;7781;49.690;6.472;2023-09-19T00:09:20;16.20;99.90
15364;DHT22;7781;49.690;6.472;2023-09-19T00:11:57;16.20;99.90
15364;DHT22;7781;49.690;6.472;2023-09-19T00:14:25;16.20;99.90
15364;DHT22;7781;49.690;6.472;2023-09-19T00:16:56;16.20;99.90
15364;DHT22;7781;49.690;6.472;2023-09-19T00:19:29;16.20;99.90
15364;DHT22;7781;49.690;6.472;2023-09-19T00:21:59;16.20;99.90
15364;DHT22;7781;49.690;6.472;2023-09-19T00:24:29;16.20;99.90
15364;DHT22;7781;49.690;6.472;2023-09-19T00:26:59;16.20;99.90
15364;DHT22;7781;49.690;6.472;2023-09-19T00:29:30;16.20;99.90
15364;DHT22;7781;49.690;6.472;2023-09-19T00:32:00;16.20;99.90
15364;DHT22;7781;49.690;6.472;2023-09-19T00:34:32;16.20;99.90
15364;DHT22;7781;49.690;6.472;2023-09-19T00:37:03;16.20;99.90
15364;DHT22;7781;49.690;6.472;2023-09-19T00:39:32;16.20;99.90
15364;DHT22;7781;49.690;6.472;2023-09-19T00:42:03;16.20;99.90
15364;DHT22;7781;49.690;6.472;2023-09-19T00:44:32;16.10;99.90
15364;DHT22;7781;49.690;6.472;2023-09-19T00:47:01;16.00;99.90
15364;DHT22;7781;49.690;6.472;2023-09-19T00:49:32;16.00;99.90
15364;DHT22;7781;49.690;6.472;2023-09-19T00:52:03;15.90;99.90
15364;DHT22;7781;49.690;6.472;2023-09-19T00:54:34;15.80;99.90
15364;DHT22;7781;49.690;6.472;2023-09-19T00:57:05;15.80;99.90
15364;DHT22;7781;49.690;6.472;2023-09-19T00:59:34;15.80;99.90
15364;DHT22;7781;49.690;6.472;2023-09-19T01:02:03;15.80;99.90
15364;DHT22;7781;49.690;6.472;2023-09-19T01:04:32;15.70;99.90
15364;DHT22;7781;49.690;6.472;2023-09-19T01:07:01;15.70;99.90
15364;DHT22;7781;49.690;6.472;2023-09-19T01:09:32;15.70;99.90
15364;DHT22;7781;49.690;6.472;2023-09-19T01:12:06;15.60;99.90
15364;DHT22;7781;49.690;6.472;2023-09-19T01:14:44;15.60;99.90
15364;DHT22;7781;49.690;6.472;2023-09-19T01:17:23;15.60;99.90
15364;DHT22;7781;49.690;6.472;2023-09-19T01:20:20;15.60;99.90
15364;DHT22;7781;49.690;6.472;2023-09-19T01:23:00;15.50;99.90
15364;DHT22;7781;49.690;6.472;2023-09-19T01:26:04;15.50;99.90
15364;DHT22;7781;49.690;6.472;2023-09-19T01:28:56;15.50;99.90
15364;DHT22;7781;49.690;6.472;2023-09-19T01:31:33;15.40;99.90
15364;DHT22;7781;49.690;6.472;2023-09-19T01:34:03;15.40;99.90
15364;DHT22;7781;49.690;6.472;2023-09-19T01:36:36;15.40;99.90
15364;DHT22;7781;49.690;6.472;2023-09-19T01:39:08;15.30;99.90
15364;DHT22;7781;49.690;6.472;2023-09-19T01:41:56;15.30;99.90
15364;DHT22;7781;49.690;6.472;2023-09-19T01:44:32;15.30;99.90
15364;DHT22;7781;49.690;6.472;2023-09-19T01:47:16;15.30;99.90
15364;DHT22;7781;49.690;6.472;2023-09-19T01:49:55;15.20;99.90
15364;DHT22;7781;49.690;6.472;2023-09-19T01:52:28;15.20;99.90
15364;DHT22;7781;49.690;6.472;2023-09-19T01:55:05;15.30;99.90
15364;DHT22;7781;49.690;6.472;2023-09-19T01:57:42;15.30;99.90
15364;DHT22;7781;49.690;6.472;2023-09-19T02:00:15;15.30;99.90
15364;DHT22;7781;49.690;6.472;2023-09-19T02:02:47;15.30;99.90
15364;DHT22;7781;49.690;6.472;2023-09-19T02:05:22;15.30;99.90
15364;DHT22;7781;49.690;6.472;2023-09-19T02:07:52;15.40;99.90
15364;DHT22;7781;49.690;6.472;2023-09-19T02:10:21;15.40;99.90
15364;DHT22;7781;49.690;6.472;2023-09-19T02:12:50;15.40;99.90
15364;DHT22;7781;49.690;6.472;2023-09-19T02:15:21;15.40;99.90
15364;DHT22;7781;49.690;6.472;2023-09-19T02:17:52;15.40;99.90
15364;DHT22;7781;49.690;6.472;2023-09-19T02:20:20;15.40;99.90
15364;DHT22;7781;49.690;6.472;2023-09-19T02:22:50;15.40;99.90
15364;DHT22;7781;49.690;6.472;2023-09-19T02:25:20;15.40;99.90
15364;DHT22;7781;49.690;6.472;2023-09-19T02:27:49;15.40;99.90
15364;DHT22;7781;49.690;6.472;2023-09-19T02:30:20;15.40;99.90
15364;DHT22;7781;49.690;6.472;2023-09-19T02:32:54;15.40;99.90
15364;DHT22;7781;49.690;6.472;2023-09-19T02:35:23;15.40;99.90
15364;DHT22;7781;49.690;6.472;2023-09-19T02:37:54;15.40;99.90
15364;DHT22;7781;49.690;6.472;2023-09-19T02:40:22;15.40;99.90
15364;DHT22;7781;49.690;6.472;2023-09-19T02:42:54;15.40;99.90
15364;DHT22;7781;49.690;6.472;2023-09-19T02:45:24;15.40;99.90
15364;DHT22;7781;49.690;6.472;2023-09-19T02:47:55;15.40;99.90
15364;DHT22;7781;49.690;6.472;2023-09-19T02:50:25;15.40;99.90
15364;DHT22;7781;49.690;6.472;2023-09-19T02:52:53;15.40;99.90
15364;DHT22;7781;49.690;6.472;2023-09-19T02:55:22;15.40;99.90
15364;DHT22;7781;49.690;6.472;2023-09-19T02:57:53;15.40;99.90
15364;DHT22;7781;49.690;6.472;2023-09-19T03:00:24;15.40;99.90
15364;DHT22;7781;49.690;6.472;2023-09-19T03:02:56;15.30;99.90
15364;DHT22;7781;49.690;6.472;2023-09-19T03:05:27;15.30;99.90
15364;DHT22;7781;49.690;6.472;2023-09-19T03:07:58;15.20;99.90
15364;DHT22;7781;49.690;6.472;2023-09-19T03:10:29;15.20;99.90
15364;DHT22;7781;49.690;6.472;2023-09-19T03:12:58;15.20;99.90
15364;DHT22;7781;49.690;6.472;2023-09-19T03:15:28;15.20;99.90
15364;DHT22;7781;49.690;6.472;2023-09-19T03:18:00;15.10;99.90
15364;DHT22;7781;49.690;6.472;2023-09-19T03:20:31;15.10;99.90
15364;DHT22;7781;49.690;6.472;2023-09-19T03:23:03;15.00;99.90
15364;DHT22;7781;49.690;6.472;2023-09-19T03:25:34;15.00;99.90
15364;DHT22;7781;49.690;6.472;2023-09-19T03:28:04;15.00;99.90
15364;DHT22;7781;49.690;6.472;2023-09-19T03:30:35;15.00;99.90
15364;DHT22;7781;49.690;6.472;2023-09-19T03:33:07;15.00;99.90
15364;DHT22;7781;49.690;6.472;2023-09-19T03:35:40;15.00;99.90
15364;DHT22;7781;49.690;6.472;2023-09-19T03:38:11;15.00;99.90
15364;DHT22;7781;49.690;6.472;2023-09-19T03:40:40;15.00;99.90
15364;DHT22;7781;49.690;6.472;2023-09-19T03:43:08;15.00;99.90
15364;DHT22;7781;49.690;6.472;2023-09-19T03:45:38;15.00;99.90
15364;DHT22;7781;49.690;6.472;2023-09-19T03:48:10;15.00;99.90
15364;DHT22;7781;49.690;6.472;2023-09-19T03:50:40;15.00;99.90
15364;DHT22;7781;49.690;6.472;2023-09-19T03:53:11;15.10;99.90
15364;DHT22;7781;49.690;6.472;2023-09-19T03:55:39;15.00;99.90
15364;DHT22;7781;49.690;6.472;2023-09-19T03:58:08;15.00;99.90
15364;DHT22;7781;49.690;6.472;2023-09-19T04:00:38;15.00;99.90
15364;DHT22;7781;49.690;6.472;2023-09-19T04:03:07;14.90;99.90
15364;DHT22;7781;49.690;6.472;2023-09-19T04:05:37;14.90;99.90
15364;DHT22;7781;49.690;6.472;2023-09-19T04:08:08;14.80;99.90
15364;DHT22;7781;49.690;6.472;2023-09-19T04:10:36;14.80;99.90
15364;DHT22;7781;49.690;6.472;2023-09-19T04:13:05;14.80;99.90
15364;DHT22;7781;49.690;6.472;2023-09-19T04:15:34;14.80;99.90
15364;DHT22;7781;49.690;6.472;2023-09-19T04:18:03;14.80;99.90
15364;DHT22;7781;49.690;6.472;2023-09-19T04:20:37;14.70;99.90
15364;DHT22;7781;49.690;6.472;2023-09-19T04:23:05;14.80;99.90
15364;DHT22;7781;49.690;6.472;2023-09-19T04:25:35;14.80;99.90
15364;DHT22;7781;49.690;6.472;2023-09-19T04:28:05;14.70;99.90
15364;DHT22;7781;49.690;6.472;2023-09-19T04:33:49;14.70;99.90
15364;DHT22;7781;49.690;6.472;2023-09-19T04:36:20;14.70;99.90
15364;DHT22;7781;49.690;6.472;2023-09-19T04:39:01;14.70;99.90
15364;DHT22;7781;49.690;6.472;2023-09-19T04:41:38;14.70;99.90
15364;DHT22;7781;49.690;6.472;2023-09-19T04:44:08;14.70;99.90
15364;DHT22;7781;49.690;6.472;2023-09-19T04:46:37;14.60;99.90
15364;DHT22;7781;49.690;6.472;2023-09-19T04:49:05;14.60;99.90
15364;DHT22;7781;49.690;6.472;2023-09-19T04:51:35;14.60;99.90
15364;DHT22;7781;49.690;6.472;2023-09-19T04:54:04;14.60;99.90
15364;DHT22;7781;49.690;6.472;2023-09-19T04:56:32;14.60;99.90
15364;DHT22;7781;49.690;6.472;2023-09-19T04:59:02;14.50;99.90
15364;DHT22;7781;49.690;6.472;2023-09-19T05:01:32;14.40;99.90
15364;DHT22;7781;49.690;6.472;2023-09-19T05:04:01;14.40;99.90
15364;DHT22;7781;49.690;6.472;2023-09-19T05:06:32;14.40;99.90
15364;DHT22;7781;49.690;6.472;2023-09-19T05:09:03;14.30;99.90
15364;DHT22;7781;49.690;6.472;2023-09-19T05:11:32;14.30;99.90
15364;DHT22;7781;49.690;6.472;2023-09-19T05:14:01;14.20;99.90
15364;DHT22;7781;49.690;6.472;2023-09-19T05:16:31;14.20;99.90
15364;DHT22;7781;49.690;6.472;2023-09-19T05:18:59;14.20;99.90
15364;DHT22;7781;49.690;6.472;2023-09-19T05:21:30;14.10;99.90
15364;DHT22;7781;49.690;6.472;2023-09-19T05:23:58;14.20;99.90
15364;DHT22;7781;49.690;6.472;2023-09-19T05:26:28;14.10;99.90
15364;DHT22;7781;49.690;6.472;2023-09-19T05:28:57;14.10;99.90
15364;DHT22;7781;49.690;6.472;2023-09-19T05:31:25;14.00;99.90
15364;DHT22;7781;49.690;6.472;2023-09-19T05:33:56;14.00;99.90
15364;DHT22;7781;49.690;6.472;2023-09-19T05:36:26;14.00;99.90
15364;DHT22;7781;49.690;6.472;2023-09-19T05:38:57;14.00;99.90
15364;DHT22;7781;49.690;6.472;2023-09-19T05:41:28;14.00;99.90
15364;DHT22;7781;49.690;6.472;2023-09-19T05:43:56;14.00;99.90
15364;DHT22;7781;49.690;6.472;2023-09-19T05:46:30;14.00;99.90
15364;DHT22;7781;49.690;6.472;2023-09-19T05:48:58;13.90;99.90
15364;DHT22;7781;49.690;6.472;2023-09-19T05:51:27;13.80;99.90
15364;DHT22;7781;49.690;6.472;2023-09-19T05:53:56;13.90;99.90
15364;DHT22;7781;49.690;6.472;2023-09-19T05:56:25;13.90;99.90
15364;DHT22;7781;49.690;6.472;2023-09-19T05:58:58;13.90;99.90
15364;DHT22;7781;49.690;6.472;2023-09-19T06:01:27;13.80;99.90
15364;DHT22;7781;49.690;6.472;2023-09-19T06:03:57;13.80;99.90
15364;DHT22;7781;49.690;6.472;2023-09-19T06:06:27;13.80;99.90
15364;DHT22;7781;49.690;6.472;2023-09-19T06:08:56;13.80;99.90
15364;DHT22;7781;49.690;6.472;2023-09-19T06:11:25;13.90;99.90
15364;DHT22;7781;49.690;6.472;2023-09-19T06:13:56;13.90;99.90
15364;DHT22;7781;49.690;6.472;2023-09-19T06:16:25;13.90;99.90
15364;DHT22;7781;49.690;6.472;2023-09-19T06:18:53;13.90;99.90
15364;DHT22;7781;49.690;6.472;2023-09-19T06:25:47;13.90;99.90
15364;DHT22;7781;49.690;6.472;2023-09-19T06:28:16;13.90;99.90
15364;DHT22;7781;49.690;6.472;2023-09-19T06:30:52;14.00;99.90
15364;DHT22;7781;49.690;6.472;2023-09-19T06:33:21;14.00;99.90
15364;DHT22;7781;49.690;6.472;2023-09-19T06:35:49;14.00;99.90
15364;DHT22;7781;49.690;6.472;2023-09-19T06:38:19;14.10;99.90
15364;DHT22;7781;49.690;6.472;2023-09-19T06:40:48;14.10;99.90
15364;DHT22;7781;49.690;6.472;2023-09-19T06:43:17;14.10;99.90
15364;DHT22;7781;49.690;6.472;2023-09-19T06:45:45;14.20;99.90
15364;DHT22;7781;49.690;6.472;2023-09-19T06:48:15;14.20;99.90
15364;DHT22;7781;49.690;6.472;2023-09-19T06:50:44;14.30;99.90
15364;DHT22;7781;49.690;6.472;2023-09-19T06:53:15;14.30;99.90
15364;DHT22;7781;49.690;6.472;2023-09-19T06:55:43;14.30;99.90
15364;DHT22;7781;49.690;6.472;2023-09-19T06:58:13;14.30;99.90
15364;DHT22;7781;49.690;6.472;2023-09-19T07:00:43;14.30;99.90
15364;DHT22;7781;49.690;6.472;2023-09-19T07:03:15;14.40;99.90
15364;DHT22;7781;49.690;6.472;2023-09-19T07:05:47;14.40;99.90
15364;DHT22;7781;49.690;6.472;2023-09-19T07:08:16;14.40;99.90
15364;DHT22;7781;49.690;6.472;2023-09-19T07:10:46;14.50;99.90
15364;DHT22;7781;49.690;6.472;2023-09-19T07:13:16;14.50;99.90
15364;DHT22;7781;49.690;6.472;2023-09-19T07:15:45;14.60;99.90
15364;DHT22;7781;49.690;6.472;2023-09-19T07:18:19;14.60;99.90
15364;DHT22;7781;49.690;6.472;2023-09-19T07:20:47;14.60;99.90
15364;DHT22;7781;49.690;6.472;2023-09-19T07:23:18;14.60;99.90
15364;DHT22;7781;49.690;6.472;2023-09-19T07:25:48;14.70;99.90
15364;DHT22;7781;49.690;6.472;2023-09-19T07:28:17;14.70;99.90
15364;DHT22;7781;49.690;6.472;2023-09-19T07:30:46;14.70;99.90
15364;DHT22;7781;49.690;6.472;2023-09-19T07:33:15;14.80;99.90
15364;DHT22;7781;49.690;6.472;2023-09-19T07:35:47;14.80;99.90
15364;DHT22;7781;49.690;6.472;2023-09-19T07:38:15;14.80;99.90
15364;DHT22;7781;49.690;6.472;2023-09-19T07:40:45;14.80;99.90
15364;DHT22;7781;49.690;6.472;2023-09-19T07:43:15;14.90;99.90
15364;DHT22;7781;49.690;6.472;2023-09-19T07:45:45;14.90;99.90
15364;DHT22;7781;49.690;6.472;2023-09-19T07:48:14;14.90;99.90
15364;DHT22;7781;49.690;6.472;2023-09-19T07:50:46;15.00;99.90
15364;DHT22;7781;49.690;6.472;2023-09-19T07:53:15;15.00;99.90
15364;DHT22;7781;49.690;6.472;2023-09-19T07:55:44;15.20;99.90
15364;DHT22;7781;49.690;6.472;2023-09-19T07:58:15;15.20;99.90
15364;DHT22;7781;49.690;6.472;2023-09-19T08:00:47;15.40;99.90
15364;DHT22;7781;49.690;6.472;2023-09-19T08:03:15;15.50;99.90
15364;DHT22;7781;49.690;6.472;2023-09-19T08:05:47;15.50;99.90
15364;DHT22;7781;49.690;6.472;2023-09-19T08:08:15;15.50;99.90
15364;DHT22;7781;49.690;6.472;2023-09-19T08:10:45;15.50;99.90
15364;DHT22;7781;49.690;6.472;2023-09-19T08:13:16;15.60;95.30
15364;DHT22;7781;49.690;6.472;2023-09-19T08:15:46;15.60;91.30
15364;DHT22;7781;49.690;6.472;2023-09-19T08:18:18;15.70;93.10
15364;DHT22;7781;49.690;6.472;2023-09-19T08:20:53;15.80;96.60
15364;DHT22;7781;49.690;6.472;2023-09-19T08:23:22;15.90;45.40
15364;DHT22;7781;49.690;6.472;2023-09-19T08:25:55;16.00;53.90
15364;DHT22;7781;49.690;6.472;2023-09-19T08:28:29;16.10;11.20
15364;DHT22;7781;49.690;6.472;2023-09-19T08:31:04;16.20;1.00
15364;DHT22;7781;49.690;6.472;2023-09-19T08:33:35;16.10;4.30
15364;DHT22;7781;49.690;6.472;2023-09-19T08:36:07;16.20;1.00
15364;DHT22;7781;49.690;6.472;2023-09-19T08:38:36;16.20;7.00
15364;DHT22;7781;49.690;6.472;2023-09-19T08:41:06;16.20;1.00
15364;DHT22;7781;49.690;6.472;2023-09-19T08:43:36;16.20;25.30
15364;DHT22;7781;49.690;6.472;2023-09-19T08:46:10;16.30;21.40
15364;DHT22;7781;49.690;6.472;2023-09-19T08:48:45;16.40;1.00
15364;DHT22;7781;49.690;6.472;2023-09-19T08:51:26;16.40;1.00
15364;DHT22;7781;49.690;6.472;2023-09-19T08:54:03;16.60;1.60
15364;DHT22;7781;49.690;6.472;2023-09-19T08:56:32;16.70;1.00
15364;DHT22;7781;49.690;6.472;2023-09-19T08:59:08;16.80;1.00
15364;DHT22;7781;49.690;6.472;2023-09-19T09:01:38;16.90;1.00
15364;DHT22;7781;49.690;6.472;2023-09-19T09:04:09;17.00;1.00
15364;DHT22;7781;49.690;6.472;2023-09-19T09:06:43;17.00;1.00
15364;DHT22;7781;49.690;6.472;2023-09-19T09:09:12;17.10;1.00
15364;DHT22;7781;49.690;6.472;2023-09-19T09:11:41;17.10;1.00
15364;DHT22;7781;49.690;6.472;2023-09-19T09:14:10;17.20;1.00
15364;DHT22;7781;49.690;6.472;2023-09-19T09:16:39;17.20;1.00
15364;DHT22;7781;49.690;6.472;2023-09-19T09:19:08;17.40;1.00
15364;DHT22;7781;49.690;6.472;2023-09-19T09:21:38;17.40;99.90
15364;DHT22;7781;49.690;6.472;2023-09-19T09:24:28;17.60;1.00
15364;DHT22;7781;49.690;6.472;2023-09-19T09:26:57;17.60;46.70
15364;DHT22;7781;49.690;6.472;2023-09-19T09:29:41;17.80;1.00
15364;DHT22;7781;49.690;6.472;2023-09-19T09:32:20;17.80;1.00
15364;DHT22;7781;49.690;6.472;2023-09-19T09:34:51;17.90;1.00
15364;DHT22;7781;49.690;6.472;2023-09-19T09:37:21;17.90;99.90
15364;DHT22;7781;49.690;6.472;2023-09-19T09:39:55;18.20;61.70
15364;DHT22;7781;49.690;6.472;2023-09-19T09:42:32;18.30;1.00
15364;DHT22;7781;49.690;6.472;2023-09-19T09:45:16;18.40;1.00
15364;DHT22;7781;49.690;6.472;2023-09-19T09:47:48;18.60;99.90
15364;DHT22;7781;49.690;6.472;2023-09-19T09:50:28;18.50;1.00
15364;DHT22;7781;49.690;6.472;2023-09-19T09:53:20;18.40;1.00
15364;DHT22;7781;49.690;6.472;2023-09-19T09:56:01;18.70;1.00
15364;DHT22;7781;49.690;6.472;2023-09-19T09:58:34;18.60;1.00
15364;DHT22;7781;49.690;6.472;2023-09-19T10:01:04;18.50;99.90
15364;DHT22;7781;49.690;6.472;2023-09-19T10:03:38;18.20;99.90
15364;DHT22;7781;49.690;6.472;2023-09-19T10:06:11;18.20;99.90
15364;DHT22;7781;49.690;6.472;2023-09-19T10:09:00;18.20;99.90
15364;DHT22;7781;49.690;6.472;2023-09-19T10:11:44;18.40;1.00
15364;DHT22;7781;49.690;6.472;2023-09-19T10:14:16;18.40;99.90
15364;DHT22;7781;49.690;6.472;2023-09-19T10:16:47;18.30;99.90
15364;DHT22;7781;49.690;6.472;2023-09-19T10:19:21;18.50;99.90
15364;DHT22;7781;49.690;6.472;2023-09-19T10:21:54;18.50;99.90
15364;DHT22;7781;49.690;6.472;2023-09-19T10:24:26;18.60;99.90
15364;DHT22;7781;49.690;6.472;2023-09-19T10:26:59;18.50;99.90
15364;DHT22;7781;49.690;6.472;2023-09-19T10:29:32;18.60;99.90
15364;DHT22;7781;49.690;6.472;2023-09-19T10:32:03;18.80;99.90
15364;DHT22;7781;49.690;6.472;2023-09-19T10:34:36;18.90;79.00
15364;DHT22;7781;49.690;6.472;2023-09-19T10:37:05;19.00;53.20
15364;DHT22;7781;49.690;6.472;2023-09-19T10:39:40;18.90;40.80
15364;DHT22;7781;49.690;6.472;2023-09-19T10:42:16;19.00;1.80
15364;DHT22;7781;49.690;6.472;2023-09-19T10:44:50;19.10;1.00
15364;DHT22;7781;49.690;6.472;2023-09-19T10:47:20;19.10;1.00
15364;DHT22;7781;49.690;6.472;2023-09-19T10:49:52;19.20;1.00
15364;DHT22;7781;49.690;6.472;2023-09-19T10:52:24;19.30;1.00
15364;DHT22;7781;49.690;6.472;2023-09-19T10:54:55;19.10;1.00
15364;DHT22;7781;49.690;6.472;2023-09-19T10:57:28;19.10;1.00
15364;DHT22;7781;49.690;6.472;2023-09-19T11:00:03;19.20;1.00
15364;DHT22;7781;49.690;6.472;2023-09-19T11:03:16;19.30;1.00
15364;DHT22;7781;49.690;6.472;2023-09-19T11:06:11;19.50;1.00
15364;DHT22;7781;49.690;6.472;2023-09-19T11:08:57;19.60;1.00
15364;DHT22;7781;49.690;6.472;2023-09-19T11:11:50;19.60;1.00
15364;DHT22;7781;49.690;6.472;2023-09-19T11:14:41;19.60;1.00
15364;DHT22;7781;49.690;6.472;2023-09-19T11:17:31;19.70;1.00
15364;DHT22;7781;49.690;6.472;2023-09-19T11:20:21;19.80;1.00
15364;DHT22;7781;49.690;6.472;2023-09-19T11:23:23;19.30;1.00
15364;DHT22;7781;49.690;6.472;2023-09-19T11:26:04;19.30;1.00
15364;DHT22;7781;49.690;6.472;2023-09-19T11:29:26;19.30;1.00
15364;DHT22;7781;49.690;6.472;2023-09-19T11:31:58;19.40;1.00
15364;DHT22;7781;49.690;6.472;2023-09-19T11:34:55;19.60;1.00
15364;DHT22;7781;49.690;6.472;2023-09-19T11:37:59;19.90;1.00
15364;DHT22;7781;49.690;6.472;2023-09-19T11:40:38;20.20;1.00
15364;DHT22;7781;49.690;6.472;2023-09-19T11:43:30;20.30;1.00
15364;DHT22;7781;49.690;6.472;2023-09-19T11:46:04;20.50;1.00
15364;DHT22;7781;49.690;6.472;2023-09-19T11:48:35;20.60;1.00
15364;DHT22;7781;49.690;6.472;2023-09-19T11:51:15;20.60;1.00
15364;DHT22;7781;49.690;6.472;2023-09-19T11:53:52;20.50;1.00
15364;DHT22;7781;49.690;6.472;2023-09-19T11:56:21;20.60;1.00
15364;DHT22;7781;49.690;6.472;2023-09-19T11:58:51;20.50;1.00
15364;DHT22;7781;49.690;6.472;2023-09-19T12:01:24;20.70;1.00
15364;DHT22;7781;49.690;6.472;2023-09-19T12:03:59;20.90;1.00
15364;DHT22;7781;49.690;6.472;2023-09-19T12:06:30;20.90;1.00
15364;DHT22;7781;49.690;6.472;2023-09-19T12:08:59;21.10;99.90
15364;DHT22;7781;49.690;6.472;2023-09-19T12:11:30;21.00;99.90
15364;DHT22;7781;49.690;6.472;2023-09-19T12:14:01;21.30;99.90
15364;DHT22;7781;49.690;6.472;2023-09-19T12:16:31;21.30;99.90
15364;DHT22;7781;49.690;6.472;2023-09-19T12:19:21;21.50;99.90
15364;DHT22;7781;49.690;6.472;2023-09-19T12:22:03;21.80;99.90
15364;DHT22;7781;49.690;6.472;2023-09-19T12:24:33;22.20;99.90
15364;DHT22;7781;49.690;6.472;2023-09-19T12:27:06;22.40;99.90
15364;DHT22;7781;49.690;6.472;2023-09-19T12:29:44;22.60;99.90
15364;DHT22;7781;49.690;6.472;2023-09-19T12:32:13;22.90;99.90
15364;DHT22;7781;49.690;6.472;2023-09-19T12:34:52;23.30;99.90
15364;DHT22;7781;49.690;6.472;2023-09-19T12:37:22;23.00;99.90
15364;DHT22;7781;49.690;6.472;2023-09-19T12:40:04;22.70;99.90
15364;DHT22;7781;49.690;6.472;2023-09-19T12:42:42;22.90;99.90
15364;DHT22;7781;49.690;6.472;2023-09-19T12:45:12;22.70;99.90
15364;DHT22;7781;49.690;6.472;2023-09-19T12:51:03;22.40;99.90
15364;DHT22;7781;49.690;6.472;2023-09-19T12:53:38;22.50;99.90
15364;DHT22;7781;49.690;6.472;2023-09-19T12:56:14;22.60;99.90
15364;DHT22;7781;49.690;6.472;2023-09-19T12:58:51;22.70;99.90
15364;DHT22;7781;49.690;6.472;2023-09-19T13:01:25;22.90;99.90
15364;DHT22;7781;49.690;6.472;2023-09-19T13:04:15;23.20;99.90
15364;DHT22;7781;49.690;6.472;2023-09-19T13:06:50;23.40;99.90
15364;DHT22;7781;49.690;6.472;2023-09-19T13:09:20;23.20;99.90
15364;DHT22;7781;49.690;6.472;2023-09-19T13:11:49;22.90;99.90
15364;DHT22;7781;49.690;6.472;2023-09-19T13:14:20;22.60;99.90
15364;DHT22;7781;49.690;6.472;2023-09-19T13:16:54;22.40;99.90
15364;DHT22;7781;49.690;6.472;2023-09-19T13:19:49;22.40;99.90
15364;DHT22;7781;49.690;6.472;2023-09-19T13:22:44;22.60;99.90
15364;DHT22;7781;49.690;6.472;2023-09-19T13:25:18;23.40;99.90
15364;DHT22;7781;49.690;6.472;2023-09-19T13:27:48;23.30;99.90
15364;DHT22;7781;49.690;6.472;2023-09-19T13:30:18;23.40;99.90
15364;DHT22;7781;49.690;6.472;2023-09-19T13:32:47;23.10;99.90
15364;DHT22;7781;49.690;6.472;2023-09-19T13:35:18;23.70;99.90
15364;DHT22;7781;49.690;6.472;2023-09-19T13:37:51;23.80;99.90
15364;DHT22;7781;49.690;6.472;2023-09-19T13:40:19;23.90;99.90
15364;DHT22;7781;49.690;6.472;2023-09-19T13:42:48;23.70;99.90
15364;DHT22;7781;49.690;6.472;2023-09-19T13:45:22;22.70;99.00
15364;DHT22;7781;49.690;6.472;2023-09-19T13:47:51;22.40;99.90
15364;DHT22;7781;49.690;6.472;2023-09-19T13:50:21;22.80;99.90
15364;DHT22;7781;49.690;6.472;2023-09-19T13:52:53;23.00;99.90
15364;DHT22;7781;49.690;6.472;2023-09-19T13:55:21;22.80;99.90
15364;DHT22;7781;49.690;6.472;2023-09-19T13:57:52;23.00;99.90
15364;DHT22;7781;49.690;6.472;2023-09-19T14:00:22;23.10;99.90
15364;DHT22;7781;49.690;6.472;2023-09-19T14:02:51;22.70;99.90
15364;DHT22;7781;49.690;6.472;2023-09-19T14:05:19;22.80;99.90
15364;DHT22;7781;49.690;6.472;2023-09-19T14:07:49;22.80;99.90
15364;DHT22;7781;49.690;6.472;2023-09-19T14:10:20;22.90;99.90
15364;DHT22;7781;49.690;6.472;2023-09-19T14:12:49;23.20;99.90
15364;DHT22;7781;49.690;6.472;2023-09-19T14:15:17;23.50;99.90
15364;DHT22;7781;49.690;6.472;2023-09-19T14:17:46;23.60;99.90
15364;DHT22;7781;49.690;6.472;2023-09-19T14:20:15;23.50;99.90
15364;DHT22;7781;49.690;6.472;2023-09-19T14:22:45;23.30;99.90
15364;DHT22;7781;49.690;6.472;2023-09-19T14:25:14;22.50;99.90
15364;DHT22;7781;49.690;6.472;2023-09-19T14:27:44;22.60;99.90
15364;DHT22;7781;49.690;6.472;2023-09-19T14:30:15;22.90;99.90
15364;DHT22;7781;49.690;6.472;2023-09-19T14:32:43;22.70;99.90
15364;DHT22;7781;49.690;6.472;2023-09-19T14:35:12;23.00;99.90
15364;DHT22;7781;49.690;6.472;2023-09-19T14:37:42;23.20;99.90
15364;DHT22;7781;49.690;6.472;2023-09-19T14:40:12;22.70;99.90
15364;DHT22;7781;49.690;6.472;2023-09-19T14:42:46;22.50;99.90
15364;DHT22;7781;49.690;6.472;2023-09-19T14:45:18;22.30;99.90
15364;DHT22;7781;49.690;6.472;2023-09-19T14:47:47;22.20;99.90
15364;DHT22;7781;49.690;6.472;2023-09-19T14:50:15;22.40;99.90
15364;DHT22;7781;49.690;6.472;2023-09-19T14:52:47;22.40;99.90
15364;DHT22;7781;49.690;6.472;2023-09-19T14:55:16;22.40;99.90
15364;DHT22;7781;49.690;6.472;2023-09-19T14:57:51;22.30;99.90
15364;DHT22;7781;49.690;6.472;2023-09-19T15:00:20;22.00;99.90
15364;DHT22;7781;49.690;6.472;2023-09-19T15:02:50;21.90;99.90
15364;DHT22;7781;49.690;6.472;2023-09-19T15:05:20;21.90;99.90
15364;DHT22;7781;49.690;6.472;2023-09-19T15:07:50;21.60;99.90
15364;DHT22;7781;49.690;6.472;2023-09-19T15:10:18;21.30;99.90
15364;DHT22;7781;49.690;6.472;2023-09-19T15:12:47;21.30;99.90
15364;DHT22;7781;49.690;6.472;2023-09-19T15:15:17;21.50;99.90
15364;DHT22;7781;49.690;6.472;2023-09-19T15:17:46;21.70;99.90
15364;DHT22;7781;49.690;6.472;2023-09-19T15:20:16;22.00;99.90
15364;DHT22;7781;49.690;6.472;2023-09-19T15:22:49;22.30;99.90
15364;DHT22;7781;49.690;6.472;2023-09-19T15:25:18;22.60;99.90
15364;DHT22;7781;49.690;6.472;2023-09-19T15:27:47;22.70;99.90
15364;DHT22;7781;49.690;6.472;2023-09-19T15:30:20;22.80;99.90
15364;DHT22;7781;49.690;6.472;2023-09-19T15:32:50;22.60;99.90
15364;DHT22;7781;49.690;6.472;2023-09-19T15:35:19;22.50;99.90
15364;DHT22;7781;49.690;6.472;2023-09-19T15:37:48;22.40;99.90
15364;DHT22;7781;49.690;6.472;2023-09-19T15:40:17;22.10;99.90
15364;DHT22;7781;49.690;6.472;2023-09-19T15:42:47;21.90;99.90
15364;DHT22;7781;49.690;6.472;2023-09-19T15:45:15;22.00;99.90
15364;DHT22;7781;49.690;6.472;2023-09-19T15:47:47;21.70;99.90
15364;DHT22;7781;49.690;6.472;2023-09-19T15:50:15;21.50;99.90
15364;DHT22;7781;49.690;6.472;2023-09-19T15:52:44;21.40;99.90
15364;DHT22;7781;49.690;6.472;2023-09-19T15:55:13;21.30;99.90
15364;DHT22;7781;49.690;6.472;2023-09-19T15:57:42;21.10;99.90
15364;DHT22;7781;49.690;6.472;2023-09-19T16:00:13;20.80;99.90
15364;DHT22;7781;49.690;6.472;2023-09-19T16:02:46;20.80;99.90
15364;DHT22;7781;49.690;6.472;2023-09-19T16:05:17;20.70;99.90
15364;DHT22;7781;49.690;6.472;2023-09-19T16:07:46;20.70;99.90
15364;DHT22;7781;49.690;6.472;2023-09-19T16:10:16;20.70;99.90
15364;DHT22;7781;49.690;6.472;2023-09-19T16:12:44;20.70;99.90
15364;DHT22;7781;49.690;6.472;2023-09-19T16:15:14;20.60;99.90
15364;DHT22;7781;49.690;6.472;2023-09-19T16:17:42;20.40;99.90
15364;DHT22;7781;49.690;6.472;2023-09-19T16:20:13;20.30;1.00
15364;DHT22;7781;49.690;6.472;2023-09-19T16:22:45;20.30;1.00
15364;DHT22;7781;49.690;6.472;2023-09-19T16:25:14;20.30;1.00
15364;DHT22;7781;49.690;6.472;2023-09-19T16:27:43;20.30;1.00
15364;DHT22;7781;49.690;6.472;2023-09-19T16:30:14;20.30;1.00
15364;DHT22;7781;49.690;6.472;2023-09-19T16:32:42;20.40;1.00
15364;DHT22;7781;49.690;6.472;2023-09-19T16:35:12;20.50;1.00